createdAt,value
2023-05-05T00:00:55.090Z,3.88
2023-05-05T00:01:56.619Z,3.90
2023-05-05T00:02:58.605Z,4.32
2023-05-05T00:04:00.333Z,4.03
2023-05-05T00:05:02.045Z,4.07
2023-05-05T00:06:04.308Z,4.30
2023-05-05T00:07:05.826Z,4.20
2023-05-05T00:08:07.901Z,4.47
2023-05-05T00:09:09.405Z,4.40
2023-05-05T00:10:10.870Z,4.18
2023-05-05T00:11:14.483Z,3.78
2023-05-05T00:12:16.088Z,4.07
2023-05-05T00:13:18.503Z,3.83
2023-05-05T00:14:20.049Z,4.40
2023-05-05T00:15:21.498Z,4.28
2023-05-05T00:16:23.347Z,4.03
2023-05-05T00:17:24.989Z,3.90
2023-05-05T00:18:26.695Z,3.78
2023-05-05T00:19:28.187Z,3.78
2023-05-05T00:20:29.629Z,3.88
2023-05-05T00:21:31.149Z,3.80
2023-05-05T00:22:32.589Z,4.35
2023-05-05T00:23:34.164Z,4.28
2023-05-05T00:24:35.923Z,4.40
2023-05-05T00:25:37.592Z,4.53
2023-05-05T00:26:39.073Z,4.07
2023-05-05T00:27:41.016Z,4.38
2023-05-05T00:28:42.855Z,4.35
2023-05-05T00:29:44.884Z,4.57
2023-05-05T00:30:46.576Z,4.20
2023-05-05T00:31:51.722Z,3.80
2023-05-05T00:32:55.027Z,4.30
2023-05-05T00:33:56.690Z,4.38
2023-05-05T00:34:58.319Z,4.03
2023-05-05T00:35:59.945Z,4.20
2023-05-05T00:37:01.621Z,3.88
2023-05-05T00:38:04.974Z,4.30
2023-05-05T00:39:06.455Z,4.10
2023-05-05T00:40:09.251Z,4.20
2023-05-05T00:41:11.063Z,4.25
2023-05-05T00:42:12.578Z,4.70
2023-05-05T00:43:14.083Z,4.00
2023-05-05T00:44:15.780Z,4.40
2023-05-05T00:45:18.793Z,4.68
2023-05-05T00:46:27.469Z,4.30
2023-05-05T00:47:29.265Z,4.38
2023-05-05T00:48:31.658Z,4.43
2023-05-05T00:49:34.736Z,4.30
2023-05-05T00:50:37.298Z,4.68
2023-05-05T00:51:38.837Z,4.43
2023-05-05T00:52:40.598Z,4.30
2023-05-05T00:53:44.920Z,4.10
2023-05-05T00:54:47.325Z,4.30
2023-05-05T00:55:49.608Z,4.47
2023-05-05T00:56:51.475Z,4.93
2023-05-05T00:57:53.361Z,4.97
2023-05-05T00:58:55.212Z,4.45
2023-05-05T00:59:58.749Z,4.13
2023-05-05T01:01:00.651Z,4.15
2023-05-05T01:02:02.332Z,4.65
2023-05-05T01:03:05.288Z,4.90
2023-05-05T01:04:07.244Z,4.50
2023-05-05T01:05:10.128Z,4.15
2023-05-05T01:06:15.228Z,4.72
2023-05-05T01:07:34.068Z,4.10
2023-05-05T01:08:50.518Z,4.50
2023-05-05T01:10:18.103Z,4.77
2023-05-05T01:11:32.653Z,3.97
2023-05-05T01:12:46.419Z,4.32
2023-05-05T01:14:10.227Z,4.38
2023-05-05T01:15:31.749Z,4.43
2023-05-05T01:16:34.828Z,4.00
2023-05-05T01:17:50.629Z,4.38
2023-05-05T01:19:20.125Z,4.40
2023-05-05T01:20:31.592Z,4.15
2023-05-05T01:21:40.423Z,4.60
2023-05-05T01:22:53.365Z,4.40
2023-05-05T01:24:48.641Z,3.80
2023-05-05T01:26:05.464Z,4.15
2023-05-05T01:27:31.779Z,3.65
2023-05-05T01:29:02.931Z,4.03
2023-05-05T01:30:39.239Z,3.90
2023-05-05T01:31:53.916Z,3.97
2023-05-05T01:33:00.936Z,3.30
2023-05-05T01:34:08.139Z,3.33
2023-05-05T01:35:13.809Z,3.72
2023-05-05T01:36:26.351Z,3.67
2023-05-05T01:37:45.456Z,3.45
2023-05-05T01:38:47.884Z,3.88
2023-05-05T01:39:55.567Z,3.58
2023-05-05T01:41:18.204Z,3.17
2023-05-05T01:42:21.160Z,3.80
2023-05-05T01:43:23.304Z,3.40
2023-05-05T01:44:25.457Z,3.83
2023-05-05T01:45:32.244Z,3.30
2023-05-05T01:46:36.148Z,3.50
2023-05-05T01:47:40.257Z,3.78
2023-05-05T01:48:44.224Z,3.78
2023-05-05T01:49:47.723Z,4.43
2023-05-05T01:50:50.317Z,4.30
2023-05-05T01:51:52.420Z,4.68
2023-05-05T01:52:55.365Z,4.10
2023-05-05T01:53:59.764Z,4.30
2023-05-05T01:55:02.966Z,4.70
2023-05-05T01:56:05.631Z,4.18
2023-05-05T01:57:08.572Z,4.40
2023-05-05T01:58:12.053Z,4.87
2023-05-05T01:59:13.744Z,4.43
2023-05-05T02:00:17.986Z,4.72
2023-05-05T02:01:24.159Z,4.60
2023-05-05T02:02:28.233Z,4.70
2023-05-05T02:03:31.479Z,5.00
2023-05-05T02:04:34.927Z,4.70
2023-05-05T02:05:39.682Z,4.45
2023-05-05T02:06:43.842Z,4.97
2023-05-05T02:07:50.036Z,4.85
2023-05-05T02:08:53.199Z,4.70
2023-05-05T02:09:56.398Z,4.70
2023-05-05T02:10:58.717Z,4.28
2023-05-05T02:12:02.110Z,3.90
2023-05-05T02:13:04.817Z,4.20
2023-05-05T02:14:09.146Z,4.43
2023-05-05T02:15:11.443Z,3.83
2023-05-05T02:16:14.101Z,3.70
2023-05-05T02:17:16.317Z,4.40
2023-05-05T02:18:19.178Z,4.18
2023-05-05T02:19:27.316Z,4.10
2023-05-05T02:20:31.581Z,3.90
2023-05-05T02:21:34.216Z,3.83
2023-05-05T02:22:35.755Z,4.07
2023-05-05T02:23:39.043Z,4.10
2023-05-05T02:24:40.655Z,4.25
2023-05-05T02:25:45.587Z,4.18
2023-05-05T02:26:50.440Z,4.13
2023-05-05T02:27:56.610Z,4.18
2023-05-05T02:29:07.840Z,4.10
2023-05-05T02:30:11.481Z,4.22
2023-05-05T02:31:14.883Z,4.13
2023-05-05T02:32:24.043Z,3.95
2023-05-05T02:33:27.910Z,4.10
2023-05-05T02:34:36.508Z,3.70
2023-05-05T02:35:41.227Z,4.43
2023-05-05T02:36:51.319Z,3.90
2023-05-05T02:38:01.887Z,4.00
2023-05-05T02:39:14.589Z,3.95
2023-05-05T02:40:24.313Z,4.35
2023-05-05T02:41:28.987Z,4.53
2023-05-05T02:42:37.953Z,4.30
2023-05-05T02:43:43.348Z,4.38
2023-05-05T02:44:47.203Z,4.03
2023-05-05T02:45:49.510Z,3.95
2023-05-05T02:46:54.258Z,3.83
2023-05-05T02:47:56.225Z,4.05
2023-05-05T02:48:59.704Z,3.58
2023-05-05T02:50:01.519Z,3.80
2023-05-05T02:51:03.659Z,3.90
2023-05-05T02:52:09.239Z,3.55
2023-05-05T02:53:12.773Z,3.60
2023-05-05T02:54:14.823Z,3.70
2023-05-05T02:55:16.762Z,3.50
2023-05-05T02:56:41.169Z,4.00
2023-05-05T02:58:29.043Z,3.72
2023-05-05T02:59:58.156Z,4.10
2023-05-05T03:01:29.738Z,3.53
2023-05-05T03:02:45.456Z,3.70
2023-05-05T03:03:56.345Z,3.45
2023-05-05T03:05:09.037Z,3.70
2023-05-05T03:06:21.112Z,3.85
2023-05-05T03:07:33.939Z,3.70
2023-05-05T03:08:53.743Z,3.60
2023-05-05T03:10:08.731Z,3.47
2023-05-05T03:11:32.042Z,3.63
2023-05-05T03:12:48.338Z,3.63
2023-05-05T03:14:07.053Z,3.70
2023-05-05T03:15:10.470Z,3.40
2023-05-05T03:16:14.095Z,3.63
2023-05-05T03:17:18.578Z,3.90
2023-05-05T03:18:22.550Z,3.67
2023-05-05T03:19:32.117Z,3.50
2023-05-05T03:20:35.870Z,3.42
2023-05-05T03:21:42.002Z,3.25
2023-05-05T03:22:43.733Z,3.87
2023-05-05T03:23:48.300Z,4.00
2023-05-05T03:24:54.545Z,3.90
2023-05-05T03:25:58.948Z,3.72
2023-05-05T03:27:14.003Z,4.00
2023-05-05T03:28:16.252Z,4.05
2023-05-05T03:29:17.825Z,3.90
2023-05-05T03:30:20.160Z,4.10
2023-05-05T03:31:25.215Z,3.78
2023-05-05T03:32:31.308Z,3.90
2023-05-05T03:33:32.900Z,3.88
2023-05-05T03:34:37.350Z,3.67
2023-05-05T03:35:39.918Z,3.35
2023-05-05T03:36:43.902Z,3.70
2023-05-05T03:37:47.903Z,4.05
2023-05-05T03:38:51.406Z,3.80
2023-05-05T03:39:54.548Z,3.67
2023-05-05T03:40:57.197Z,3.30
2023-05-05T03:42:01.042Z,3.22
2023-05-05T03:43:06.264Z,3.70
2023-05-05T03:44:07.933Z,3.83
2023-05-05T03:45:10.714Z,3.70
2023-05-05T03:46:14.016Z,3.58
2023-05-05T03:47:16.804Z,3.80
2023-05-05T03:48:19.679Z,3.88
2023-05-05T03:49:21.605Z,3.70
2023-05-05T03:50:25.959Z,3.75
2023-05-05T03:51:28.055Z,3.60
2023-05-05T03:52:29.783Z,3.80
2023-05-05T03:53:31.287Z,3.50
2023-05-05T03:54:34.888Z,4.10
2023-05-05T03:55:37.122Z,3.65
2023-05-05T03:56:38.629Z,3.15
2023-05-05T03:57:40.193Z,3.30
2023-05-05T03:58:42.031Z,3.70
2023-05-05T03:59:43.556Z,3.35
2023-05-05T04:00:45.272Z,3.20
2023-05-05T04:01:48.881Z,4.15
2023-05-05T04:02:51.151Z,3.27
2023-05-05T04:03:54.469Z,3.50
2023-05-05T04:04:56.033Z,3.60
2023-05-05T04:05:57.544Z,3.92
2023-05-05T04:06:59.595Z,4.00
2023-05-05T04:08:01.313Z,3.20
2023-05-05T04:09:03.322Z,3.58
2023-05-05T04:10:05.662Z,3.33
2023-05-05T04:11:07.923Z,3.58
2023-05-05T04:12:13.649Z,3.47
2023-05-05T04:13:15.623Z,3.00
2023-05-05T04:14:17.162Z,3.50
2023-05-05T04:15:19.111Z,3.25
2023-05-05T04:16:21.035Z,3.50
2023-05-05T04:17:22.669Z,3.22
2023-05-05T04:18:24.303Z,3.00
2023-05-05T04:19:26.037Z,3.00
2023-05-05T04:20:27.526Z,3.20
2023-05-05T04:21:31.529Z,3.05
2023-05-05T04:22:33.311Z,3.00
2023-05-05T04:23:34.962Z,3.10
2023-05-05T04:24:37.231Z,3.25
2023-05-05T04:25:39.307Z,2.80
2023-05-05T04:26:41.464Z,3.00
2023-05-05T04:27:43.026Z,2.95
2023-05-05T04:28:47.317Z,3.05
2023-05-05T04:29:50.206Z,2.67
2023-05-05T04:30:52.397Z,2.90
2023-05-05T04:31:54.310Z,2.85
2023-05-05T04:32:55.852Z,2.88
2023-05-05T04:33:57.453Z,2.85
2023-05-05T04:34:58.944Z,2.72
2023-05-05T04:36:00.850Z,2.80
2023-05-05T04:37:03.666Z,2.53
2023-05-05T04:38:05.634Z,2.80
2023-05-05T04:39:08.616Z,2.70
2023-05-05T04:40:10.670Z,3.13
2023-05-05T04:41:13.492Z,2.58
2023-05-05T04:42:17.248Z,2.92
2023-05-05T04:43:18.749Z,2.60
2023-05-05T04:44:20.974Z,2.70
2023-05-05T04:45:22.686Z,2.75
2023-05-05T04:46:24.985Z,2.50
2023-05-05T04:47:26.554Z,2.80
2023-05-05T04:48:28.250Z,2.70
2023-05-05T04:49:30.351Z,2.75
2023-05-05T04:50:32.624Z,2.97
2023-05-05T04:51:34.113Z,2.63
2023-05-05T04:52:35.782Z,2.70
2023-05-05T04:53:37.337Z,2.95
2023-05-05T04:54:39.223Z,2.67
2023-05-05T04:55:40.785Z,2.58
2023-05-05T04:56:42.310Z,2.50
2023-05-05T04:57:44.445Z,2.63
2023-05-05T04:58:46.133Z,2.60
2023-05-05T04:59:47.742Z,2.53
2023-05-05T05:00:49.245Z,2.60
2023-05-05T05:01:50.735Z,2.65
2023-05-05T05:02:53.100Z,2.72
2023-05-05T05:03:54.800Z,2.70
2023-05-05T05:04:56.352Z,2.70
2023-05-05T05:05:57.928Z,2.80
2023-05-05T05:06:59.487Z,2.47
2023-05-05T05:08:02.097Z,2.95
2023-05-05T05:09:03.781Z,2.58
2023-05-05T05:10:06.137Z,2.78
2023-05-05T05:11:08.883Z,2.87
2023-05-05T05:12:10.529Z,2.63
2023-05-05T05:13:12.858Z,2.50
2023-05-05T05:14:14.602Z,2.90
2023-05-05T05:15:16.195Z,2.85
2023-05-05T05:16:17.787Z,2.90
2023-05-05T05:17:20.500Z,2.80
2023-05-05T05:18:22.010Z,2.63
2023-05-05T05:19:24.670Z,2.55
2023-05-05T05:20:26.292Z,2.80
2023-05-05T05:21:27.845Z,2.65
2023-05-05T05:22:30.602Z,2.97
2023-05-05T05:23:33.024Z,2.92
2023-05-05T05:24:35.180Z,2.83
2023-05-05T05:25:36.707Z,2.77
2023-05-05T05:26:38.934Z,2.90
2023-05-05T05:27:41.731Z,2.65
2023-05-05T05:28:44.153Z,2.60
2023-05-05T05:29:45.724Z,2.83
2023-05-05T05:30:47.303Z,3.10
2023-05-05T05:31:50.188Z,2.63
2023-05-05T05:32:52.139Z,2.35
2023-05-05T05:33:53.778Z,2.78
2023-05-05T05:34:55.366Z,2.50
2023-05-05T05:35:56.931Z,2.75
2023-05-05T05:36:58.695Z,2.67
2023-05-05T05:38:00.630Z,2.55
2023-05-05T05:39:02.113Z,2.67
2023-05-05T05:40:05.313Z,2.50
2023-05-05T05:41:08.408Z,2.22
2023-05-05T05:42:11.627Z,2.65
2023-05-05T05:43:13.095Z,2.22
2023-05-05T05:44:14.635Z,2.60
2023-05-05T05:45:16.779Z,2.38
2023-05-05T05:46:19.399Z,2.30
2023-05-05T05:47:21.580Z,2.50
2023-05-05T05:48:28.358Z,2.20
2023-05-05T05:49:30.514Z,2.47
2023-05-05T05:50:32.029Z,2.40
2023-05-05T05:51:34.181Z,2.30
2023-05-05T05:52:36.491Z,2.10
2023-05-05T05:53:40.045Z,2.10
2023-05-05T05:54:42.973Z,2.25
2023-05-05T05:55:48.725Z,2.20
2023-05-05T05:56:50.685Z,2.20
2023-05-05T05:57:52.475Z,2.33
2023-05-05T05:58:54.817Z,2.30
2023-05-05T05:59:59.213Z,2.33
2023-05-05T06:01:02.212Z,2.20
2023-05-05T06:02:04.772Z,2.45
2023-05-05T06:03:07.431Z,2.35
2023-05-05T06:04:11.823Z,2.30
2023-05-05T06:05:13.876Z,2.30
2023-05-05T06:06:17.213Z,2.30
2023-05-05T06:07:19.428Z,2.45
2023-05-05T06:08:23.049Z,2.50
2023-05-05T06:09:27.737Z,2.20
2023-05-05T06:10:30.376Z,3.90
2023-05-05T06:11:37.040Z,2.33
2023-05-05T06:12:38.798Z,2.70
2023-05-05T06:13:40.363Z,2.30
2023-05-05T06:14:41.924Z,2.10
2023-05-05T06:15:43.499Z,2.22
2023-05-05T06:16:47.171Z,2.60
2023-05-05T06:17:54.014Z,2.22
2023-05-05T06:18:57.593Z,2.20
2023-05-05T06:19:59.453Z,2.33
2023-05-05T06:21:02.023Z,2.07
2023-05-05T06:22:04.671Z,2.20
2023-05-05T06:23:06.672Z,2.25
2023-05-05T06:24:11.947Z,2.10
2023-05-05T06:25:13.512Z,2.08
2023-05-05T06:26:14.978Z,2.50
2023-05-05T06:27:16.867Z,2.20
2023-05-05T06:28:18.675Z,2.08
2023-05-05T06:29:20.521Z,2.08
2023-05-05T06:30:22.037Z,2.33
2023-05-05T06:31:23.837Z,2.03
2023-05-05T06:32:25.510Z,2.00
2023-05-05T06:33:26.998Z,2.10
2023-05-05T06:34:28.560Z,2.15
2023-05-05T06:35:30.349Z,1.98
2023-05-05T06:36:32.353Z,2.00
2023-05-05T06:37:34.034Z,2.00
2023-05-05T06:38:36.397Z,1.90
2023-05-05T06:39:37.909Z,1.90
2023-05-05T06:40:39.692Z,2.00
2023-05-05T06:41:41.688Z,2.03
2023-05-05T06:42:43.473Z,2.30
2023-05-05T06:43:50.957Z,2.00
2023-05-05T06:44:52.598Z,1.77
2023-05-05T06:45:54.127Z,1.92
2023-05-05T06:46:55.719Z,2.00
2023-05-05T06:47:57.405Z,1.90
2023-05-05T06:48:58.937Z,1.83
2023-05-05T06:50:00.384Z,1.80
2023-05-05T06:51:04.539Z,1.98
2023-05-05T06:52:08.349Z,1.90
2023-05-05T06:53:09.824Z,1.77
2023-05-05T06:54:11.297Z,2.10
2023-05-05T06:55:12.781Z,1.80
2023-05-05T06:56:14.376Z,1.77
2023-05-05T06:57:15.946Z,1.58
2023-05-05T06:58:17.391Z,2.13
2023-05-05T06:59:18.906Z,2.05
2023-05-05T07:00:22.054Z,1.90
2023-05-05T07:01:23.634Z,2.10
2023-05-05T07:02:26.798Z,1.80
2023-05-05T07:03:28.506Z,1.60
2023-05-05T07:04:30.105Z,1.98
2023-05-05T07:05:31.797Z,1.90
2023-05-05T07:06:33.661Z,1.75
2023-05-05T07:07:35.983Z,1.60
2023-05-05T07:08:37.450Z,2.08
2023-05-05T07:09:39.256Z,1.80
2023-05-05T07:10:40.962Z,1.80
2023-05-05T07:11:42.448Z,1.83
2023-05-05T07:12:44.114Z,2.00
2023-05-05T07:13:45.594Z,1.67
2023-05-05T07:14:47.596Z,1.92
2023-05-05T07:15:49.616Z,1.75
2023-05-05T07:16:51.509Z,2.20
2023-05-05T07:17:53.279Z,1.92
2023-05-05T07:18:54.792Z,1.98
2023-05-05T07:19:56.407Z,1.65
2023-05-05T07:20:57.886Z,2.20
2023-05-05T07:21:59.378Z,2.00
2023-05-05T07:23:00.826Z,1.90
2023-05-05T07:24:05.911Z,1.83
2023-05-05T07:25:08.075Z,1.88
2023-05-05T07:26:09.706Z,1.92
2023-05-05T07:27:11.514Z,1.80
2023-05-05T07:28:13.213Z,1.92
2023-05-05T07:29:14.752Z,1.90
2023-05-05T07:30:18.484Z,1.80
2023-05-05T07:31:21.977Z,1.90
2023-05-05T07:32:23.852Z,2.05
2023-05-05T07:33:25.426Z,2.65
2023-05-05T07:34:27.561Z,2.30
2023-05-05T07:35:30.083Z,2.55
2023-05-05T07:36:32.164Z,2.50
2023-05-05T07:37:33.703Z,2.80
2023-05-05T07:38:35.209Z,3.65
2023-05-05T07:39:36.732Z,3.60
2023-05-05T07:40:38.205Z,3.05
2023-05-05T07:41:39.736Z,2.92
2023-05-05T07:42:41.607Z,2.88
2023-05-05T07:43:44.637Z,3.15
2023-05-05T07:44:46.316Z,2.90
2023-05-05T07:45:47.872Z,3.08
2023-05-05T07:46:49.720Z,3.00
2023-05-05T07:47:51.569Z,2.95
2023-05-05T07:48:53.073Z,2.92
2023-05-05T07:49:54.553Z,3.00
2023-05-05T07:50:56.115Z,3.13
2023-05-05T07:51:57.669Z,3.60
2023-05-05T07:53:10.572Z,3.97
2023-05-05T07:54:17.513Z,4.20
2023-05-05T07:55:19.255Z,3.92
2023-05-05T07:56:21.778Z,3.88
2023-05-05T07:57:23.459Z,4.25
2023-05-05T07:58:25.008Z,3.70
2023-05-05T07:59:26.630Z,4.30
2023-05-05T08:00:28.130Z,4.30
2023-05-05T08:01:29.822Z,4.50
2023-05-05T08:02:31.378Z,4.30
2023-05-05T08:03:33.153Z,4.35
2023-05-05T08:04:35.023Z,4.55
2023-05-05T08:05:37.699Z,4.15
2023-05-05T08:06:39.387Z,4.63
2023-05-05T08:07:41.539Z,4.28
2023-05-05T08:08:43.565Z,4.32
2023-05-05T08:09:45.299Z,4.70
2023-05-05T08:10:46.732Z,4.38
2023-05-05T08:11:48.416Z,4.60
2023-05-05T08:12:50.071Z,4.75
2023-05-05T08:13:52.070Z,4.75
2023-05-05T08:14:53.882Z,4.95
2023-05-05T08:15:56.089Z,4.20
2023-05-05T08:16:57.560Z,4.50
2023-05-05T08:17:59.341Z,4.80
2023-05-05T08:19:00.894Z,4.50
2023-05-05T08:20:02.417Z,4.53
2023-05-05T08:21:05.367Z,4.57
2023-05-05T08:22:06.871Z,4.25
2023-05-05T08:23:08.415Z,5.13
2023-05-05T08:24:09.938Z,4.80
2023-05-05T08:25:12.955Z,5.22
2023-05-05T08:26:14.594Z,4.30
2023-05-05T08:27:16.176Z,4.50
2023-05-05T08:28:17.736Z,4.03
2023-05-05T08:29:19.281Z,4.20
2023-05-05T08:30:21.401Z,4.82
2023-05-05T08:31:22.974Z,4.35
2023-05-05T08:32:24.505Z,4.20
2023-05-05T08:33:26.053Z,4.10
2023-05-05T08:34:27.506Z,3.95
2023-05-05T08:35:28.985Z,4.82
2023-05-05T08:36:30.980Z,4.90
2023-05-05T08:37:32.473Z,4.57
2023-05-05T08:38:33.980Z,4.60
2023-05-05T08:39:35.597Z,4.72
2023-05-05T08:40:39.207Z,4.80
2023-05-05T08:41:40.827Z,4.38
2023-05-05T08:42:42.919Z,5.15
2023-05-05T08:43:46.747Z,5.10
2023-05-05T08:44:48.307Z,4.82
2023-05-05T08:45:53.568Z,4.75
2023-05-05T08:46:55.689Z,4.35
2023-05-05T08:47:58.336Z,4.65
2023-05-05T08:49:01.531Z,4.37
2023-05-05T08:50:05.673Z,4.35
2023-05-05T08:51:09.507Z,4.57
2023-05-05T08:52:21.652Z,4.25
2023-05-05T08:53:35.958Z,4.72
2023-05-05T08:54:40.495Z,4.60
2023-05-05T08:55:50.451Z,4.43
2023-05-05T08:56:52.640Z,4.30
2023-05-05T08:57:57.235Z,4.18
2023-05-05T08:59:01.056Z,4.45
2023-05-05T09:00:04.144Z,3.72
2023-05-05T09:01:06.260Z,3.72
2023-05-05T09:02:09.671Z,4.10
2023-05-05T09:03:12.159Z,3.80
2023-05-05T09:04:14.050Z,3.75
2023-05-05T09:05:16.251Z,3.75
2023-05-05T09:06:20.868Z,3.90
2023-05-05T09:07:22.560Z,4.03
2023-05-05T09:08:24.656Z,3.17
2023-05-05T09:09:27.307Z,3.25
2023-05-05T09:10:29.336Z,3.08
2023-05-05T09:11:33.933Z,3.13
2023-05-05T09:12:36.095Z,3.33
2023-05-05T09:13:37.613Z,2.65
2023-05-05T09:14:39.132Z,2.75
2023-05-05T09:15:42.112Z,2.83
2023-05-05T09:16:44.220Z,2.58
2023-05-05T09:17:46.800Z,2.70
2023-05-05T09:18:48.436Z,2.72
2023-05-05T09:20:10.477Z,2.47
2023-05-05T09:21:25.954Z,2.20
2023-05-05T09:22:41.132Z,2.45
2023-05-05T09:24:09.424Z,2.50
2023-05-05T09:25:13.020Z,2.55
2023-05-05T09:26:14.769Z,2.23
2023-05-05T09:27:23.378Z,2.65
2023-05-05T09:28:24.847Z,2.83
2023-05-05T09:29:26.395Z,2.80
2023-05-05T09:30:27.988Z,2.55
2023-05-05T09:31:33.831Z,2.35
2023-05-05T09:32:52.313Z,2.33
2023-05-05T09:33:53.901Z,2.20
2023-05-05T09:35:00.464Z,2.30
2023-05-05T09:36:01.913Z,2.20
2023-05-05T09:37:03.754Z,2.50
2023-05-05T09:38:12.202Z,2.47
2023-05-05T09:39:16.363Z,2.25
2023-05-05T09:40:19.402Z,2.00
2023-05-05T09:41:37.527Z,2.33
2023-05-05T09:42:40.448Z,2.30
2023-05-05T09:43:52.383Z,2.40
2023-05-05T09:44:56.051Z,1.92
2023-05-05T09:46:08.250Z,2.17
2023-05-05T09:47:21.961Z,2.15
2023-05-05T09:48:30.589Z,2.30
2023-05-05T09:49:32.166Z,2.10
2023-05-05T09:50:44.117Z,2.10
2023-05-05T09:51:46.557Z,1.83
2023-05-05T09:52:59.087Z,1.92
2023-05-05T09:54:00.594Z,1.70
2023-05-05T09:55:02.206Z,1.42
2023-05-05T09:56:03.855Z,1.30
2023-05-05T09:57:05.329Z,1.40
2023-05-05T09:58:29.327Z,1.70
2023-05-05T09:59:30.934Z,1.58
2023-05-05T10:00:39.558Z,1.50
2023-05-05T10:01:43.360Z,1.40
2023-05-05T10:02:45.518Z,1.30
2023-05-05T10:03:53.690Z,1.33
2023-05-05T10:05:12.902Z,1.30
2023-05-05T10:06:14.561Z,1.30
2023-05-05T10:07:24.210Z,1.10
2023-05-05T10:08:34.198Z,1.40
2023-05-05T10:09:35.748Z,1.20
2023-05-05T10:10:39.927Z,1.40
2023-05-05T10:11:42.295Z,1.33
2023-05-05T10:12:46.576Z,1.20
2023-05-05T10:13:48.483Z,1.40
2023-05-05T10:14:52.579Z,1.42
2023-05-05T10:15:56.219Z,1.42
2023-05-05T10:17:00.869Z,1.20
2023-05-05T10:18:07.424Z,1.23
2023-05-05T10:19:14.214Z,1.50
2023-05-05T10:20:16.262Z,1.13
2023-05-05T10:21:21.388Z,1.00
2023-05-05T10:22:24.090Z,1.20
2023-05-05T10:23:35.248Z,1.13
2023-05-05T10:24:47.897Z,1.27
2023-05-05T10:26:12.503Z,1.50
2023-05-05T10:27:23.090Z,1.50
2023-05-05T10:28:56.127Z,1.25
2023-05-05T10:30:06.331Z,1.60
2023-05-05T10:31:24.252Z,1.42
2023-05-05T10:33:47.623Z,1.60
2023-05-05T10:34:53.269Z,1.35
2023-05-05T10:35:59.621Z,1.40
2023-05-05T10:37:01.410Z,1.40
2023-05-05T10:38:03.698Z,1.42
2023-05-05T10:39:10.658Z,1.30
2023-05-05T10:40:13.868Z,1.50
2023-05-05T10:41:16.020Z,1.42
2023-05-05T10:42:21.037Z,1.30
2023-05-05T10:43:24.412Z,1.58
2023-05-05T10:44:27.737Z,1.60
2023-05-05T10:45:29.731Z,1.50
2023-05-05T10:46:34.103Z,1.50
2023-05-05T10:47:37.254Z,1.58
2023-05-05T10:48:59.688Z,1.50
2023-05-05T10:50:11.455Z,1.80
2023-05-05T10:51:39.384Z,1.70
2023-05-05T10:53:19.032Z,1.70
2023-05-05T10:54:32.701Z,1.40
2023-05-05T10:55:40.877Z,1.50
2023-05-05T10:56:43.394Z,1.50
2023-05-05T10:57:46.152Z,1.40
2023-05-05T10:58:59.081Z,1.70
2023-05-05T11:00:01.869Z,1.70
2023-05-05T11:01:05.089Z,1.70
2023-05-05T11:02:26.728Z,1.77
2023-05-05T11:03:29.002Z,1.60
2023-05-05T11:04:30.841Z,1.90
2023-05-05T11:05:32.455Z,1.42
2023-05-05T11:06:33.934Z,1.80
2023-05-05T11:07:36.839Z,1.67
2023-05-05T11:08:48.158Z,1.63
2023-05-05T11:09:58.331Z,1.80
2023-05-05T11:11:00.915Z,1.70
2023-05-05T11:12:04.675Z,1.85
2023-05-05T11:13:09.136Z,1.80
2023-05-05T11:14:24.444Z,1.88
2023-05-05T11:15:33.476Z,1.73
2023-05-05T11:16:50.491Z,2.05
2023-05-05T11:17:57.028Z,1.70
2023-05-05T11:18:58.547Z,1.60
2023-05-05T11:20:00.030Z,1.60
2023-05-05T11:21:01.460Z,1.50
2023-05-05T11:22:03.047Z,1.60
2023-05-05T11:23:04.978Z,1.63
2023-05-05T11:24:30.089Z,1.67
2023-05-05T11:25:38.078Z,1.88
2023-05-05T11:26:58.014Z,1.55
2023-05-05T11:28:16.877Z,1.80
2023-05-05T11:29:18.426Z,1.48
2023-05-05T11:30:20.182Z,1.60
2023-05-05T11:31:22.117Z,1.40
2023-05-05T11:32:24.943Z,1.65
2023-05-05T11:33:34.979Z,1.48
2023-05-05T11:34:48.228Z,1.60
2023-05-05T11:36:09.400Z,1.48
2023-05-05T11:37:11.409Z,1.60
2023-05-05T11:38:15.453Z,1.85
2023-05-05T11:39:26.698Z,1.50
2023-05-05T11:40:33.355Z,1.55
2023-05-05T11:42:12.709Z,1.33
2023-05-05T11:43:18.955Z,1.60
2023-05-05T11:44:32.656Z,1.63
2023-05-05T11:45:34.567Z,1.38
2023-05-05T11:46:36.156Z,1.60
2023-05-05T11:47:38.162Z,1.58
2023-05-05T11:48:49.992Z,1.23
2023-05-05T11:49:51.513Z,1.40
2023-05-05T11:50:53.860Z,1.50
2023-05-05T11:52:06.003Z,1.50
2023-05-05T11:53:07.787Z,1.65
2023-05-05T11:54:09.290Z,1.10
2023-05-05T11:55:10.832Z,1.20
2023-05-05T11:56:18.740Z,1.77
2023-05-05T11:57:27.868Z,1.60
2023-05-05T11:58:29.399Z,1.60
2023-05-05T11:59:54.973Z,1.40
2023-05-05T12:00:56.547Z,1.35
2023-05-05T12:01:58.773Z,1.40
2023-05-05T12:03:00.474Z,1.70
2023-05-05T12:04:02.263Z,1.40
2023-05-05T12:05:04.462Z,1.30
2023-05-05T12:06:07.539Z,1.73
2023-05-05T12:07:15.419Z,1.25
2023-05-05T12:08:16.904Z,1.40
2023-05-05T12:09:20.243Z,1.55
2023-05-05T12:10:25.124Z,1.40
2023-05-05T12:11:26.731Z,1.48
2023-05-05T12:12:40.144Z,1.40
2023-05-05T12:13:41.905Z,1.48
2023-05-05T12:14:47.067Z,1.30
2023-05-05T12:15:48.536Z,1.30
2023-05-05T12:17:08.613Z,1.40
2023-05-05T12:18:19.806Z,1.40
2023-05-05T12:19:21.821Z,1.40
2023-05-05T12:20:32.230Z,1.48
2023-05-05T12:21:35.172Z,1.52
2023-05-05T12:22:36.840Z,1.60
2023-05-05T12:23:39.134Z,1.50
2023-05-05T12:24:40.664Z,1.50
2023-05-05T12:25:42.189Z,1.30
2023-05-05T12:26:44.001Z,1.38
2023-05-05T12:27:52.801Z,1.60
2023-05-05T12:28:55.534Z,1.50
2023-05-05T12:30:10.187Z,1.50
2023-05-05T12:31:11.895Z,1.60
2023-05-05T12:32:21.429Z,1.70
2023-05-05T12:33:23.219Z,1.50
2023-05-05T12:34:24.816Z,1.30
2023-05-05T12:35:27.032Z,1.40
2023-05-05T12:36:30.615Z,1.40
2023-05-05T12:37:32.504Z,1.20
2023-05-05T12:38:34.905Z,1.40
2023-05-05T12:39:36.602Z,1.40
2023-05-05T12:40:53.727Z,1.30
2023-05-05T12:42:03.116Z,1.35
2023-05-05T12:43:04.656Z,1.33
2023-05-05T12:44:06.600Z,1.50
2023-05-05T12:45:17.345Z,1.40
2023-05-05T12:46:18.907Z,1.50
2023-05-05T12:47:33.281Z,1.50
2023-05-05T12:48:37.781Z,1.30
2023-05-05T12:49:50.068Z,1.52
2023-05-05T12:50:52.245Z,1.40
2023-05-05T12:51:55.392Z,1.33
2023-05-05T12:52:57.031Z,1.40
2023-05-05T12:54:09.918Z,1.53
2023-05-05T12:55:11.739Z,1.70
2023-05-05T12:56:32.880Z,1.30
2023-05-05T12:57:34.405Z,1.30
2023-05-05T12:58:48.606Z,1.50
2023-05-05T12:59:51.668Z,1.40
2023-05-05T13:01:08.213Z,1.40
2023-05-05T13:02:09.793Z,1.52
2023-05-05T13:03:20.522Z,1.60
2023-05-05T13:04:24.010Z,1.60
2023-05-05T13:05:36.100Z,1.40
2023-05-05T13:06:42.827Z,1.47
2023-05-05T13:07:51.847Z,1.50
2023-05-05T13:08:53.424Z,1.65
2023-05-05T13:10:10.423Z,1.50
2023-05-05T13:11:12.230Z,1.40
2023-05-05T13:12:14.513Z,1.60
2023-05-05T13:13:16.061Z,1.60
2023-05-05T13:14:17.540Z,1.60
2023-05-05T13:15:19.022Z,1.45
2023-05-05T13:16:20.772Z,1.60
2023-05-05T13:17:22.350Z,1.70
2023-05-05T13:18:24.010Z,1.75
2023-05-05T13:19:25.742Z,1.60
2023-05-05T13:20:27.222Z,2.05
2023-05-05T13:21:28.747Z,1.50
2023-05-05T13:22:30.722Z,1.42
2023-05-05T13:23:32.248Z,1.65
2023-05-05T13:24:49.840Z,1.70
2023-05-05T13:25:53.540Z,1.55
2023-05-05T13:26:55.832Z,1.50
2023-05-05T13:27:57.298Z,1.60
2023-05-05T13:28:58.848Z,1.63
2023-05-05T13:30:00.387Z,1.65
2023-05-05T13:31:01.881Z,1.53
2023-05-05T13:32:03.610Z,1.40
2023-05-05T13:33:05.234Z,1.40
2023-05-05T13:34:06.802Z,1.42
2023-05-05T13:35:09.082Z,1.50
2023-05-05T13:36:10.756Z,1.27
2023-05-05T13:37:12.268Z,1.50
2023-05-05T13:38:13.701Z,1.55
2023-05-05T13:39:15.234Z,1.52
2023-05-05T13:40:16.778Z,1.50
2023-05-05T13:41:18.937Z,1.60
2023-05-05T13:42:20.487Z,1.52
2023-05-05T13:43:22.146Z,1.60
2023-05-05T13:44:24.182Z,1.65
2023-05-05T13:45:25.738Z,1.65
2023-05-05T13:46:27.451Z,1.70
2023-05-05T13:47:29.293Z,1.50
2023-05-05T13:48:30.775Z,1.35
2023-05-05T13:49:32.305Z,1.83
2023-05-05T13:50:33.955Z,1.50
2023-05-05T13:51:35.498Z,1.80
2023-05-05T13:52:37.388Z,2.17
2023-05-05T13:53:43.681Z,1.92
2023-05-05T13:54:45.298Z,1.50
2023-05-05T13:55:46.807Z,1.90
2023-05-05T13:56:48.306Z,1.50
2023-05-05T13:57:49.800Z,1.60
2023-05-05T13:58:51.917Z,1.70
2023-05-05T13:59:53.417Z,1.58
2023-05-05T14:00:55.400Z,1.65
2023-05-05T14:01:56.992Z,1.40
2023-05-05T14:02:58.505Z,1.25
2023-05-05T14:04:01.411Z,1.52
2023-05-05T14:05:04.603Z,1.70
2023-05-05T14:06:07.460Z,1.42
2023-05-05T14:07:08.913Z,1.73
2023-05-05T14:08:11.387Z,1.42
2023-05-05T14:09:13.226Z,1.58
2023-05-05T14:10:14.667Z,1.43
2023-05-05T14:11:17.927Z,1.30
2023-05-05T14:12:19.502Z,1.65
2023-05-05T14:13:21.091Z,1.87
2023-05-05T14:14:22.726Z,1.60
2023-05-05T14:15:24.391Z,1.50
2023-05-05T14:16:25.942Z,1.70
2023-05-05T14:17:27.371Z,1.70
2023-05-05T14:18:29.009Z,1.58
2023-05-05T14:19:30.898Z,1.50
2023-05-05T14:20:32.547Z,2.03
2023-05-05T14:21:34.102Z,1.75
2023-05-05T14:22:35.628Z,2.05